createdAt,value
2023-02-04T08:54:11.118Z,64.45
2023-02-04T08:56:16.597Z,64.17
2023-02-04T08:58:19.316Z,63.83
2023-02-04T09:00:22.470Z,63.36
2023-02-04T09:02:25.472Z,63.12
2023-02-04T09:04:29.050Z,62.95
2023-02-04T09:06:31.765Z,62.78
2023-02-04T09:08:34.703Z,62.50
2023-02-04T09:10:38.730Z,62.54
2023-02-04T09:12:42.671Z,62.27
2023-02-04T09:14:45.373Z,62.48
2023-02-04T09:16:49.094Z,62.43
2023-02-04T09:18:51.780Z,62.02
2023-02-04T09:20:54.429Z,61.75
2023-02-04T09:22:57.124Z,61.77
2023-02-04T09:24:59.914Z,61.86
2023-02-04T09:27:04.093Z,61.99
2023-02-04T09:29:06.765Z,61.59
2023-02-04T09:31:09.481Z,61.88
2023-02-04T09:33:13.665Z,61.72
2023-02-04T09:35:16.392Z,61.21
2023-02-04T09:37:19.058Z,61.24
2023-02-04T09:39:21.847Z,61.36
2023-02-04T09:41:24.633Z,61.29
2023-02-04T09:43:32.258Z,60.97
2023-02-04T09:45:37.114Z,61.06
2023-02-04T09:47:40.031Z,61.07
2023-02-04T09:49:45.442Z,61.04
2023-02-04T09:51:49.148Z,60.74
2023-02-04T09:53:54.101Z,60.86
2023-02-04T09:55:57.236Z,60.48
2023-02-04T09:58:00.365Z,60.53
2023-02-04T10:00:09.848Z,60.36
2023-02-04T10:02:22.668Z,60.34
2023-02-04T10:04:25.722Z,60.18
2023-02-04T10:06:28.545Z,60.42
2023-02-04T10:08:34.504Z,60.04
2023-02-04T10:10:37.162Z,59.83
2023-02-04T10:12:40.156Z,59.91
2023-02-04T10:14:43.631Z,60.18
2023-02-04T10:16:53.644Z,59.94
2023-02-04T10:18:57.689Z,59.94
2023-02-04T10:21:13.986Z,59.83
2023-02-04T10:23:16.722Z,59.48
2023-02-04T10:25:22.148Z,59.71
2023-02-04T10:27:25.766Z,59.65
2023-02-04T10:29:28.512Z,59.46
2023-02-04T10:31:35.937Z,59.61
2023-02-04T10:33:40.246Z,59.29
2023-02-04T10:35:47.746Z,59.24
2023-02-04T10:38:03.876Z,59.15
2023-02-04T10:40:07.392Z,59.10
2023-02-04T10:42:22.776Z,58.87
2023-02-04T10:44:28.592Z,58.86
2023-02-04T10:46:31.814Z,58.63
2023-02-04T10:48:42.814Z,58.62
2023-02-04T10:50:47.357Z,58.94
2023-02-04T10:52:52.509Z,58.75
2023-02-04T10:54:54.288Z,58.57
2023-02-04T10:56:58.396Z,58.52
2023-02-04T10:59:01.182Z,58.44
2023-02-04T11:01:03.995Z,58.39
2023-02-04T11:03:12.090Z,58.29
2023-02-04T11:05:18.870Z,58.23
2023-02-04T11:07:22.495Z,57.97
2023-02-04T11:09:25.324Z,57.80
2023-02-04T11:11:28.248Z,58.00
2023-02-04T11:13:41.929Z,57.91
2023-02-04T11:15:50.220Z,57.96
2023-02-04T11:18:03.860Z,57.75
2023-02-04T11:20:31.560Z,57.55
2023-02-04T11:22:42.566Z,57.41
2023-02-04T11:24:45.376Z,57.51
2023-02-04T11:26:51.622Z,57.46
2023-02-04T11:29:10.374Z,57.54
2023-02-04T11:31:28.644Z,57.04
2023-02-04T11:33:40.629Z,57.27
2023-02-04T11:36:04.536Z,57.09
2023-02-04T11:38:26.350Z,56.91
2023-02-04T11:40:32.206Z,57.07
2023-02-04T11:42:42.216Z,56.89
2023-02-04T11:44:50.011Z,56.90
2023-02-04T11:46:55.423Z,56.69
2023-02-04T11:49:00.552Z,56.43
2023-02-04T11:51:13.766Z,56.67
2023-02-04T11:53:16.450Z,56.58
2023-02-04T11:55:20.014Z,56.24
2023-02-04T11:57:22.786Z,56.06
2023-02-04T11:59:25.514Z,56.08
2023-02-04T12:01:33.007Z,56.04
2023-02-04T12:03:35.770Z,55.72
2023-02-04T12:05:42.280Z,56.19
2023-02-04T12:07:47.380Z,55.92
2023-02-04T12:09:50.118Z,55.49
2023-02-04T12:11:53.757Z,55.90
2023-02-04T12:13:57.785Z,55.62
2023-02-04T12:16:02.350Z,55.69
2023-02-04T12:18:07.378Z,55.85
2023-02-04T12:20:12.247Z,55.41
2023-02-04T12:22:15.697Z,55.66
2023-02-04T12:24:19.803Z,55.43
2023-02-04T12:26:22.548Z,55.45
2023-02-04T12:28:25.730Z,55.33
2023-02-04T12:30:28.412Z,55.52
2023-02-04T12:32:31.061Z,55.17
2023-02-04T12:34:33.792Z,55.33
2023-02-04T12:36:36.519Z,55.20
2023-02-04T12:38:39.274Z,55.25
2023-02-04T12:40:43.448Z,54.95
2023-02-04T12:42:46.333Z,55.01
2023-02-04T12:44:48.977Z,54.96
2023-02-04T12:46:52.390Z,54.76
2023-02-04T12:48:55.275Z,54.63
2023-02-04T12:50:58.001Z,54.80
2023-02-04T12:53:01.077Z,54.55
2023-02-04T12:55:04.900Z,55.00
2023-02-04T12:57:09.122Z,54.47
2023-02-04T12:59:11.800Z,54.83
2023-02-04T13:01:14.638Z,54.60
2023-02-04T13:03:17.467Z,54.61
2023-02-04T13:05:20.374Z,54.54
2023-02-04T13:07:23.400Z,54.25
2023-02-04T13:09:26.143Z,54.58
2023-02-04T13:11:28.850Z,54.36
2023-02-04T13:13:32.954Z,54.36
2023-02-04T13:15:35.806Z,54.40
2023-02-04T13:17:39.022Z,54.48
2023-02-04T13:19:41.715Z,54.62
2023-02-04T13:21:44.671Z,54.42
2023-02-04T13:23:47.397Z,54.24
2023-02-04T13:25:50.206Z,54.45
2023-02-04T13:27:52.953Z,54.32
2023-02-04T13:29:57.066Z,54.21
2023-02-04T13:32:00.183Z,54.13
2023-02-04T13:34:02.993Z,54.33
2023-02-04T13:36:06.702Z,54.19
2023-02-04T13:38:09.446Z,53.92
2023-02-04T13:40:13.156Z,54.30
2023-02-04T13:42:16.184Z,54.17
2023-02-04T13:44:18.931Z,53.95
2023-02-04T13:46:23.358Z,53.70
2023-02-04T13:48:26.360Z,53.54
2023-02-04T13:50:29.080Z,53.70
2023-02-04T13:52:32.840Z,53.66
2023-02-04T13:54:36.815Z,53.42
2023-02-04T13:56:41.099Z,53.40
2023-02-04T13:58:45.444Z,53.62
2023-02-04T14:00:48.160Z,53.18
2023-02-04T14:02:52.238Z,53.03
2023-02-04T14:04:54.924Z,53.16
2023-02-04T14:06:57.646Z,53.10
2023-02-04T14:09:00.805Z,53.26
2023-02-04T14:11:03.528Z,52.89
2023-02-04T14:13:06.746Z,53.09
2023-02-04T14:15:10.369Z,52.94
2023-02-04T14:17:13.110Z,53.09
2023-02-04T14:19:17.190Z,53.05
2023-02-04T14:21:19.974Z,52.79
2023-02-04T14:23:23.667Z,52.48
2023-02-04T14:25:26.820Z,52.51
2023-02-04T14:27:29.563Z,52.49
2023-02-04T14:29:32.450Z,52.71
2023-02-04T14:31:36.678Z,52.54
2023-02-04T14:33:39.360Z,52.63
2023-02-04T14:35:43.374Z,52.40
2023-02-04T14:37:46.837Z,52.44
2023-02-04T14:39:49.547Z,52.33
2023-02-04T14:41:52.634Z,52.38
2023-02-04T14:43:55.349Z,52.30
2023-02-04T14:45:58.056Z,52.52
2023-02-04T14:48:01.346Z,52.42
2023-02-04T14:50:06.068Z,52.25
2023-02-04T14:52:11.402Z,52.44
2023-02-04T14:54:14.687Z,52.54
2023-02-04T14:56:17.735Z,52.36
2023-02-04T14:58:20.503Z,52.25
2023-02-04T15:00:23.378Z,52.36
2023-02-04T15:02:26.415Z,52.17
2023-02-04T15:04:29.572Z,52.24
2023-02-04T15:06:32.260Z,52.38
2023-02-04T15:08:36.282Z,52.41
2023-02-04T15:10:38.994Z,52.40
2023-02-04T15:12:41.812Z,52.24
2023-02-04T15:14:44.581Z,52.16
2023-02-04T15:16:48.521Z,52.32
2023-02-04T15:18:51.318Z,52.35
2023-02-04T15:20:54.040Z,52.46
2023-02-04T15:22:56.673Z,52.32
2023-02-04T15:25:00.682Z,52.26
2023-02-04T15:27:03.747Z,52.27
2023-02-04T15:29:06.800Z,52.44
2023-02-04T15:31:09.572Z,52.24
2023-02-04T15:33:13.930Z,52.34
2023-02-04T15:35:16.741Z,52.26
2023-02-04T15:37:19.443Z,52.22
2023-02-04T15:39:22.266Z,52.30
2023-02-04T15:41:26.395Z,52.38
2023-02-04T15:43:29.113Z,52.42
2023-02-04T15:45:31.910Z,52.29
2023-02-04T15:47:34.551Z,52.18
2023-02-04T15:49:37.698Z,52.46
2023-02-04T15:51:40.433Z,52.39
2023-02-04T15:53:43.206Z,52.15
2023-02-04T15:55:45.995Z,52.19
2023-02-04T15:57:50.086Z,52.41
2023-02-04T15:59:52.825Z,52.22
2023-02-04T16:01:55.471Z,52.57
2023-02-04T16:03:58.954Z,52.60
2023-02-04T16:06:02.372Z,52.50
2023-02-04T16:08:05.579Z,52.48
2023-02-04T16:10:08.905Z,52.38
2023-02-04T16:12:11.676Z,52.39
2023-02-04T16:14:15.690Z,52.91
2023-02-04T16:16:18.502Z,52.79
2023-02-04T16:18:21.384Z,52.47
2023-02-04T16:20:24.657Z,52.69
2023-02-04T16:22:27.397Z,52.86
2023-02-04T16:24:30.061Z,52.84
2023-02-04T16:26:32.806Z,52.60
2023-02-04T16:28:35.680Z,52.82
2023-02-04T16:30:40.292Z,52.79
2023-02-04T16:32:43.380Z,52.70
2023-02-04T16:34:46.165Z,52.95
2023-02-04T16:36:50.058Z,53.03
2023-02-04T16:38:52.765Z,53.09
2023-02-04T16:40:55.621Z,52.93
2023-02-04T16:42:58.422Z,53.35
2023-02-04T16:45:01.134Z,53.48
2023-02-04T16:47:06.357Z,53.51
2023-02-04T16:49:09.165Z,53.61
2023-02-04T16:51:11.895Z,53.41
2023-02-04T16:53:16.016Z,53.53
2023-02-04T16:55:18.777Z,53.52
2023-02-04T16:57:21.483Z,53.43
2023-02-04T16:59:24.538Z,53.84
2023-02-04T17:01:27.430Z,53.86
2023-02-04T17:03:31.470Z,53.96
2023-02-04T17:05:34.486Z,53.74
2023-02-04T17:07:37.464Z,54.19
2023-02-04T17:09:40.306Z,53.84
2023-02-04T17:11:43.120Z,53.83
2023-02-04T17:13:45.795Z,53.93
2023-02-04T17:15:48.531Z,54.18
2023-02-04T17:17:51.299Z,54.22
2023-02-04T17:19:55.709Z,54.21
2023-02-04T17:21:59.626Z,54.24
2023-02-04T17:24:04.208Z,54.14
2023-02-04T17:26:07.102Z,54.66
2023-02-04T17:28:09.849Z,54.69
2023-02-04T17:30:13.740Z,54.61
2023-02-04T17:32:16.632Z,54.50
2023-02-04T17:34:19.472Z,54.77
2023-02-04T17:36:23.656Z,54.64
2023-02-04T17:38:28.014Z,54.52
2023-02-04T17:40:31.394Z,54.55
2023-02-04T17:42:34.178Z,54.76
2023-02-04T17:44:36.993Z,54.69
2023-02-04T17:46:39.787Z,54.92
2023-02-04T17:48:42.559Z,54.79
2023-02-04T17:50:45.422Z,54.97
2023-02-04T17:52:49.473Z,55.23
2023-02-04T17:54:52.251Z,55.12
2023-02-04T17:56:57.566Z,55.21
2023-02-04T17:59:00.233Z,55.29
2023-02-04T18:01:03.643Z,55.49
2023-02-04T18:03:06.742Z,55.67
2023-02-04T18:05:16.181Z,55.62
2023-02-04T18:07:19.110Z,55.44
2023-02-04T18:09:23.348Z,55.79
2023-02-04T18:11:28.063Z,55.40
2023-02-04T18:13:32.942Z,55.73
2023-02-04T18:15:36.443Z,55.95
2023-02-04T18:17:39.411Z,55.99
2023-02-04T18:19:44.545Z,55.84
2023-02-04T18:21:48.035Z,55.92
2023-02-04T18:24:03.550Z,55.95
2023-02-04T18:26:13.192Z,55.99
2023-02-04T18:28:18.134Z,55.81
2023-02-04T18:30:26.315Z,55.73
2023-02-04T18:32:37.633Z,55.65
2023-02-04T18:34:42.495Z,56.02
2023-02-04T18:36:45.183Z,55.88
2023-02-04T18:38:48.368Z,56.13
2023-02-04T18:40:52.246Z,56.42
2023-02-04T18:43:16.237Z,56.17
2023-02-04T18:45:23.813Z,56.01
2023-02-04T18:47:32.076Z,56.03
2023-02-04T18:49:36.929Z,56.08
2023-02-04T18:51:41.036Z,55.98
2023-02-04T18:53:43.785Z,56.38
2023-02-04T18:55:48.390Z,56.10
2023-02-04T18:57:51.191Z,56.24
2023-02-04T18:59:58.379Z,56.16
2023-02-04T19:02:01.232Z,56.46
2023-02-04T19:04:07.296Z,56.16
2023-02-04T19:06:25.947Z,56.30
2023-02-04T19:08:30.279Z,56.61
2023-02-04T19:10:35.425Z,56.23
2023-02-04T19:12:38.203Z,56.44
2023-02-04T19:14:43.736Z,56.40
2023-02-04T19:16:49.306Z,56.47
2023-02-04T19:18:54.879Z,56.16
2023-02-04T19:21:09.484Z,56.50
2023-02-04T19:23:16.635Z,56.56
2023-02-04T19:25:28.824Z,56.51
2023-02-04T19:27:34.415Z,56.78
2023-02-04T19:29:42.070Z,56.56
2023-02-04T19:31:44.988Z,56.63
2023-02-04T19:33:50.567Z,56.43
2023-02-04T19:35:53.483Z,56.58
2023-02-04T19:38:00.442Z,56.56
2023-02-04T19:40:03.869Z,56.70
2023-02-04T19:42:25.021Z,56.75
2023-02-04T19:44:38.652Z,56.87
2023-02-04T19:46:42.392Z,56.62
2023-02-04T19:48:45.502Z,56.65
2023-02-04T19:50:52.645Z,56.86
2023-02-04T19:53:00.272Z,56.69
2023-02-04T19:55:36.303Z,56.90
2023-02-04T19:57:39.394Z,57.01
2023-02-04T19:59:42.468Z,56.68
2023-02-04T20:01:45.383Z,56.75
2023-02-04T20:03:49.327Z,57.04
2023-02-04T20:05:53.668Z,57.10
2023-02-04T20:07:56.620Z,56.92
2023-02-04T20:10:04.500Z,57.13
2023-02-04T20:12:14.832Z,56.87
2023-02-04T20:14:52.164Z,56.78
2023-02-04T20:16:58.189Z,56.93
2023-02-04T20:19:02.476Z,56.84
2023-02-04T20:21:12.021Z,57.13
2023-02-04T20:23:27.953Z,56.90
2023-02-04T20:25:41.775Z,57.09
2023-02-04T20:27:44.683Z,57.07
2023-02-04T20:29:48.063Z,56.98
2023-02-04T20:31:50.816Z,57.33
2023-02-04T20:33:55.466Z,56.90
2023-02-04T20:36:43.125Z,56.98
2023-02-04T20:38:46.672Z,57.36
2023-02-04T20:40:49.492Z,57.13
2023-02-04T20:42:55.830Z,57.19
2023-02-04T20:45:10.479Z,56.76
2023-02-04T20:47:17.339Z,57.23
2023-02-04T20:49:24.330Z,57.08
2023-02-04T20:51:27.553Z,56.61
2023-02-04T20:53:38.140Z,56.67
2023-02-04T20:55:40.934Z,56.79
2023-02-04T20:57:43.612Z,56.64
2023-02-04T20:59:49.368Z,56.72
2023-02-04T21:01:53.446Z,56.52
2023-02-04T21:03:57.633Z,56.60
2023-02-04T21:06:01.612Z,56.72
2023-02-04T21:08:11.731Z,56.18
2023-02-04T21:10:16.641Z,55.98
2023-02-04T21:12:19.473Z,56.11
2023-02-04T21:14:22.392Z,55.98
2023-02-04T21:16:25.164Z,56.17
2023-02-04T21:18:29.639Z,56.05
2023-02-04T21:20:34.721Z,56.09
2023-02-04T21:22:38.618Z,56.20
2023-02-04T21:24:42.209Z,55.98
2023-02-04T21:26:46.479Z,55.73
2023-02-04T21:28:49.387Z,55.48
2023-02-04T21:30:52.995Z,55.50
2023-02-04T21:32:56.049Z,55.53
2023-02-04T21:34:58.938Z,55.53
2023-02-04T21:37:01.870Z,55.81
2023-02-04T21:39:05.038Z,55.70
2023-02-04T21:41:08.165Z,55.39
2023-02-04T21:43:12.646Z,55.42
2023-02-04T21:45:16.855Z,55.29
2023-02-04T21:47:19.654Z,55.32
2023-02-04T21:49:22.493Z,55.44
2023-02-04T21:51:25.434Z,55.32
2023-02-04T21:53:28.191Z,55.17
2023-02-04T21:55:31.433Z,55.21
2023-02-04T21:57:34.669Z,54.98
2023-02-04T21:59:39.054Z,54.98
2023-02-04T22:01:41.967Z,54.70
2023-02-04T22:03:44.708Z,55.06
2023-02-04T22:05:47.421Z,54.76
2023-02-04T22:07:50.990Z,54.44
2023-02-04T22:09:53.822Z,54.49
